メインページ
METAR-TAF:

METAR-TAF

空港 :

八戸航空基地

八戸, 日本

緯度: 40-33N, 経度: 141-28E, 海抜: 46m

現時点の気象観測

当レポートは6時間57分前の05:35(UTC)に作成
西の風 5kt
気温 18°C
湿度 59%
気圧 1012 hPa
視程10km以上
高度3000ftの雲は散在している
高度8000ftの千切れ雲あり

METAR: RJSH 160535Z 27005KT 9999 SCT030 BKN080 18/10 Q1012 RMK 3CU030 7AC080 A2989

時間: 21:32 (12:32 UTC)


TAF: 見つかりません

4,000以上の空港の気象観測と天気予報(METAR報とTAF報)

利用可能な観測所は地図上に黄色い丸と赤い丸で示す。

丸の上にカーソルを重ねると観測所名を参照できる。

次にクリックすると気象観測と天気予報を参照できる。

マップの切り替え:黒色「×」印の緑ボタンをクリックして拡大、「-」印の緑ボタンをクリックして縮小、緑色の三角印をクリックして隣りの地図に切り替え


METAR-TAF: